Aérodrome :
LOGIN :

S'inscrire | Disclaimer

   EN    FR    IT 

 










Légende :    VFR   VFR Marginal   IFR   IFR Intensif   IFR Très Intensif
Visi : 
Plafond : 
>= 8 km
>= 3000ft
5 à 8 km
1000 à 3000 ft
1500m à 5 km
500 à 1000 ft
800 à 1500m
200 à 500 ft
< 800m
< 200 ft
Symboles :   Orages  Brouillard  Fortes neiges  Fortes précipitations  Vent > 20 kt
SIGMETs :   Divers  Orages  Givrage  Turbulence  Onde Orograph.  Cendres Volcan.







- Altitude de l'aérodrome : 37 ft


EHVL - Vlieland Heliport

DERNIER METAR :
  • 181655Z AUTO 23026KT 7000 BR NCD 18/16 Q1010 WHT

METARs EXPIRÉS :
  • 181625Z AUTO 22027KT 7000 HZ NCD 19/16 Q1010 WHT
  • 181555Z AUTO 22028KT 8000 HZ NCD 19/16 Q1009 BLU
  • 181525Z AUTO 22029KT 8000 HZ FEW020 19/15 Q1009 BLU
  • 181455Z AUTO 22028KT 8000 HZ FEW018 20/15 Q1009 BLU
  • 181425Z AUTO 22030KT 8000 HZ OVC025 20/15 Q1009 BLU

Prévision TAF périmée.
Pas de NOTAMs connus pour ce terrain.



MET'MAP, la Météo Aéronautique d'un coup d'oeil ! - Copyright ORBIFLY Décembre 2007 - Disclaimer

ORBIFLY MET'MAP TEAM :

Programmation & Développement : Alexandra Zaïnal
Conception & Développement : Baudouin d'Aumeries
Co-Programmation & Développement : Marc-Olivier Méhu
Soutien technique & logistique : Manuel Goepfert

Contact : metmap@orbifly.com




SOURCES & CREDITS :

   NOAA